createdAt,value
2019-01-25T00:00:52.802Z,92.06
2019-01-25T00:01:53.271Z,92.06
2019-01-25T00:02:53.739Z,92.06
2019-01-25T00:03:54.209Z,92.07
2019-01-25T00:04:54.680Z,92.06
2019-01-25T00:05:55.150Z,92.06
2019-01-25T00:06:55.616Z,92.06
2019-01-25T00:07:56.086Z,92.08
2019-01-25T00:08:56.558Z,92.07
2019-01-25T00:09:58.791Z,92.07
2019-01-25T00:10:57.493Z,92.06
2019-01-25T00:11:57.964Z,92.07
2019-01-25T00:12:58.432Z,92.07
2019-01-25T00:13:58.901Z,92.07
2019-01-25T00:14:59.372Z,92.07
2019-01-25T00:15:59.845Z,92.06
2019-01-25T00:17:00.337Z,92.07
2019-01-25T00:18:00.782Z,92.07
2019-01-25T00:19:01.248Z,92.07
2019-01-25T00:20:01.735Z,92.07
2019-01-25T00:21:02.190Z,92.07
2019-01-25T00:22:02.656Z,92.07
2019-01-25T00:23:03.126Z,92.07
2019-01-25T00:24:03.596Z,92.07
2019-01-25T00:25:04.136Z,92.07
2019-01-25T00:26:04.532Z,92.07
2019-01-25T00:27:05.059Z,92.07
2019-01-25T00:28:05.473Z,92.07
2019-01-25T00:29:05.943Z,92.07
2019-01-25T00:30:06.411Z,92.08
2019-01-25T00:31:06.880Z,92.07
2019-01-25T00:32:07.354Z,92.07
2019-01-25T00:33:07.820Z,92.08
2019-01-25T00:34:08.288Z,92.08
2019-01-25T00:35:08.960Z,92.07
2019-01-25T00:36:09.236Z,92.08
2019-01-25T00:37:09.697Z,92.07
2019-01-25T00:38:10.166Z,92.07
2019-01-25T00:39:10.644Z,92.07
2019-01-25T00:40:11.109Z,92.07
2019-01-25T00:41:11.582Z,92.08
2019-01-25T00:42:12.042Z,92.08
2019-01-25T00:43:12.511Z,92.07
2019-01-25T00:44:12.985Z,92.08
2019-01-25T00:45:13.452Z,92.08
2019-01-25T00:46:13.922Z,92.08
2019-01-25T00:47:14.390Z,92.08
2019-01-25T00:48:14.863Z,92.08
2019-01-25T00:49:15.381Z,92.08
2019-01-25T00:50:15.797Z,92.08
2019-01-25T00:51:16.286Z,92.08
2019-01-25T00:52:16.738Z,92.08
2019-01-25T00:53:17.210Z,92.07
2019-01-25T00:54:17.682Z,92.08
2019-01-25T00:55:18.146Z,92.08
2019-01-25T00:56:18.616Z,92.08
2019-01-25T00:57:19.086Z,92.08
2019-01-25T00:58:19.555Z,92.10
2019-01-25T00:59:20.022Z,92.08
2019-01-25T01:00:20.493Z,92.07
2019-01-25T01:01:20.966Z,92.08
2019-01-25T01:02:21.472Z,92.07
2019-01-25T01:03:21.901Z,92.07
2019-01-25T01:04:22.371Z,92.08
2019-01-25T01:05:22.843Z,92.08
2019-01-25T01:06:23.308Z,92.08
2019-01-25T01:07:23.779Z,92.08
2019-01-25T01:08:24.249Z,92.07
2019-01-25T01:09:24.720Z,92.07
2019-01-25T01:10:25.186Z,92.07
2019-01-25T01:11:25.656Z,92.07
2019-01-25T01:12:26.125Z,92.07
2019-01-25T01:13:26.594Z,92.07
2019-01-25T01:14:27.109Z,92.07
2019-01-25T01:15:27.532Z,92.07
2019-01-25T01:16:28.002Z,92.07
2019-01-25T01:17:28.471Z,92.07
2019-01-25T01:18:28.941Z,92.07
2019-01-25T01:19:29.410Z,92.07
2019-01-25T01:20:29.906Z,92.07
2019-01-25T01:21:30.349Z,92.07
2019-01-25T01:22:30.817Z,92.07
2019-01-25T01:23:31.288Z,92.07
2019-01-25T01:24:31.757Z,92.07
2019-01-25T01:25:32.230Z,92.07
2019-01-25T01:26:32.694Z,92.07
2019-01-25T01:27:33.165Z,92.07
2019-01-25T01:28:33.636Z,92.07
2019-01-25T01:29:34.105Z,92.07
2019-01-25T01:30:34.575Z,92.06
2019-01-25T01:31:35.048Z,92.06
2019-01-25T01:32:35.513Z,92.06
2019-01-25T01:33:35.981Z,92.06
2019-01-25T01:34:36.450Z,92.06
2019-01-25T01:35:36.920Z,92.06
2019-01-25T01:36:37.389Z,92.02
2019-01-25T01:37:37.860Z,92.06
2019-01-25T01:38:38.327Z,92.06
2019-01-25T01:39:38.795Z,92.06
2019-01-25T01:40:39.266Z,92.05
2019-01-25T01:41:39.736Z,92.04
2019-01-25T01:42:40.203Z,92.06
2019-01-25T01:43:40.674Z,92.05
2019-01-25T01:44:41.142Z,92.04
2019-01-25T01:45:41.614Z,92.02
2019-01-25T01:46:42.082Z,92.04
2019-01-25T01:47:42.592Z,92.05
2019-01-25T01:48:43.027Z,92.02
2019-01-25T01:49:43.489Z,92.02
2019-01-25T01:50:43.959Z,92.02
2019-01-25T01:51:44.427Z,92.02
2019-01-25T01:52:44.904Z,92.04
2019-01-25T01:53:45.369Z,92.04
2019-01-25T01:54:45.833Z,92.02
2019-01-25T01:55:46.305Z,92.02
2019-01-25T01:56:46.774Z,92.02
2019-01-25T01:57:47.243Z,92.04
2019-01-25T01:58:47.711Z,92.02
2019-01-25T01:59:48.183Z,92.01
2019-01-25T02:00:48.651Z,92.04
2019-01-25T02:01:49.120Z,92.02
2019-01-25T02:02:49.588Z,92.02
2019-01-25T02:03:50.060Z,92.02
2019-01-25T02:04:50.528Z,92.02
2019-01-25T02:05:50.997Z,92.02
2019-01-25T02:06:51.465Z,92.02
2019-01-25T02:07:51.935Z,92.02
2019-01-25T02:08:52.402Z,92.02
2019-01-25T02:09:52.877Z,92.02
2019-01-25T02:10:53.342Z,92.02
2019-01-25T02:11:53.818Z,92.02
2019-01-25T02:12:54.281Z,92.02
2019-01-25T02:13:54.752Z,92.02
2019-01-25T02:14:55.218Z,92.02
2019-01-25T02:15:55.688Z,92.02
2019-01-25T02:16:56.159Z,92.02
2019-01-25T02:17:56.627Z,92.02
2019-01-25T02:18:57.100Z,92.02
2019-01-25T02:19:57.565Z,92.02
2019-01-25T02:20:58.037Z,92.02
2019-01-25T02:21:58.504Z,92.02
2019-01-25T02:22:58.971Z,92.02
2019-01-25T02:23:59.441Z,92.02
2019-01-25T02:24:59.912Z,92.02
2019-01-25T02:26:00.379Z,92.02
2019-01-25T02:27:01.189Z,92.02
2019-01-25T02:28:01.320Z,92.02
2019-01-25T02:29:01.787Z,92.02
2019-01-25T02:30:02.259Z,92.02
2019-01-25T02:31:02.725Z,92.03
2019-01-25T02:32:03.195Z,92.02
2019-01-25T02:33:03.664Z,92.03
2019-01-25T02:34:04.136Z,92.02
2019-01-25T02:35:04.604Z,92.03
2019-01-25T02:36:05.078Z,92.02
2019-01-25T02:37:05.544Z,92.02
2019-01-25T02:38:06.011Z,92.02
2019-01-25T02:39:06.479Z,92.02
2019-01-25T02:40:06.949Z,92.02
2019-01-25T02:41:07.418Z,92.03
2019-01-25T02:42:07.889Z,92.02
2019-01-25T02:43:08.359Z,92.02
2019-01-25T02:44:08.825Z,92.03
2019-01-25T02:45:09.296Z,92.03
2019-01-25T02:46:09.762Z,92.02
2019-01-25T02:47:10.232Z,92.03
2019-01-25T02:48:10.717Z,92.03
2019-01-25T02:49:11.171Z,92.02
2019-01-25T02:50:11.640Z,92.03
2019-01-25T02:51:12.109Z,91.99
2019-01-25T02:52:12.579Z,92.01
2019-01-25T02:53:13.049Z,92.01
2019-01-25T02:54:13.516Z,92.03
2019-01-25T02:55:13.987Z,92.04
2019-01-25T02:56:14.455Z,92.01
2019-01-25T02:57:14.926Z,92.03
2019-01-25T02:58:15.395Z,92.03
2019-01-25T02:59:15.862Z,92.03
2019-01-25T03:00:16.332Z,92.03
2019-01-25T03:01:16.806Z,92.03
2019-01-25T03:02:17.274Z,92.03
2019-01-25T03:03:17.745Z,92.03
2019-01-25T03:04:18.208Z,92.03
2019-01-25T03:05:18.680Z,92.03
2019-01-25T03:06:19.146Z,92.03
2019-01-25T03:07:19.629Z,92.03
2019-01-25T03:08:20.085Z,92.03
2019-01-25T03:09:20.555Z,92.03
2019-01-25T03:10:28.214Z,92.04
2019-01-25T03:11:21.502Z,92.03
2019-01-25T03:12:21.961Z,92.02
2019-01-25T03:13:22.430Z,92.02
2019-01-25T03:14:22.900Z,92.02
2019-01-25T03:15:23.382Z,92.03
2019-01-25T03:16:23.839Z,92.03
2019-01-25T03:17:24.308Z,92.03
2019-01-25T03:18:24.778Z,92.03
2019-01-25T03:19:25.271Z,92.03
2019-01-25T03:20:25.715Z,92.03
2019-01-25T03:21:26.186Z,92.03
2019-01-25T03:22:26.653Z,92.03
2019-01-25T03:23:27.126Z,92.03
2019-01-25T03:24:27.602Z,92.03
2019-01-25T03:25:28.059Z,92.03
2019-01-25T03:26:28.531Z,92.04
2019-01-25T03:27:29.003Z,92.03
2019-01-25T03:28:29.468Z,92.03
2019-01-25T03:29:29.939Z,92.03
2019-01-25T03:30:30.414Z,92.03
2019-01-25T03:31:30.878Z,92.03
2019-01-25T03:32:31.350Z,92.03
2019-01-25T03:33:31.814Z,92.04
2019-01-25T03:34:32.286Z,92.03
2019-01-25T03:35:32.752Z,92.03
2019-01-25T03:36:33.224Z,92.03
2019-01-25T03:37:33.697Z,92.03
2019-01-25T03:38:34.160Z,92.03
2019-01-25T03:39:34.629Z,92.03
2019-01-25T03:40:35.098Z,92.03
2019-01-25T03:41:35.568Z,92.03
2019-01-25T03:42:36.035Z,92.03
2019-01-25T03:43:36.506Z,92.03
2019-01-25T03:44:36.978Z,92.03
2019-01-25T03:45:37.443Z,92.04
2019-01-25T03:46:37.914Z,92.04
2019-01-25T03:47:38.383Z,92.04
2019-01-25T03:48:38.850Z,92.04
2019-01-25T03:49:39.324Z,92.04
2019-01-25T03:50:39.796Z,92.03
2019-01-25T03:51:40.258Z,92.04
2019-01-25T03:52:40.729Z,92.04
2019-01-25T03:53:41.197Z,92.03
2019-01-25T03:54:41.667Z,92.03
2019-01-25T03:55:42.338Z,92.03
2019-01-25T03:56:42.605Z,92.04
2019-01-25T03:57:43.076Z,92.03
2019-01-25T03:58:43.543Z,92.04
2019-01-25T03:59:44.017Z,92.03
2019-01-25T04:00:44.480Z,92.03
2019-01-25T04:01:44.952Z,92.04
2019-01-25T04:02:45.427Z,92.04
2019-01-25T04:03:45.888Z,92.04
2019-01-25T04:04:46.356Z,92.04
2019-01-25T04:05:46.825Z,92.04
2019-01-25T04:06:47.299Z,92.04
2019-01-25T04:07:47.764Z,92.04
2019-01-25T04:08:48.254Z,92.04
2019-01-25T04:09:48.703Z,92.04
2019-01-25T04:10:49.176Z,92.04
2019-01-25T04:11:49.642Z,92.04
2019-01-25T04:12:50.109Z,92.04
2019-01-25T04:13:50.581Z,92.04
2019-01-25T04:14:51.049Z,92.04
2019-01-25T04:15:51.526Z,92.04
2019-01-25T04:16:51.987Z,92.04
2019-01-25T04:17:52.457Z,92.04
2019-01-25T04:18:52.924Z,92.04
2019-01-25T04:19:53.463Z,92.04
2019-01-25T04:20:53.864Z,92.04
2019-01-25T04:21:54.333Z,92.04
2019-01-25T04:22:54.805Z,92.04
2019-01-25T04:23:55.269Z,92.04
2019-01-25T04:24:55.750Z,92.04
2019-01-25T04:25:56.211Z,92.04
2019-01-25T04:26:56.678Z,92.04
2019-01-25T04:27:57.145Z,92.04
2019-01-25T04:28:57.616Z,92.04
2019-01-25T04:29:58.085Z,92.04
2019-01-25T04:30:58.554Z,92.04
2019-01-25T04:31:59.022Z,92.04
2019-01-25T04:32:59.493Z,92.04
2019-01-25T04:33:59.960Z,92.04
2019-01-25T04:35:00.452Z,92.04
2019-01-25T04:36:00.899Z,92.04
2019-01-25T04:37:01.379Z,92.04
2019-01-25T04:38:01.838Z,92.04
2019-01-25T04:39:02.305Z,92.04
2019-01-25T04:40:02.773Z,92.04
2019-01-25T04:41:11.204Z,92.04
2019-01-25T04:42:03.713Z,92.04
2019-01-25T04:43:04.185Z,92.04
2019-01-25T04:44:04.648Z,92.04
2019-01-25T04:45:05.120Z,92.04
2019-01-25T04:46:05.590Z,92.04
2019-01-25T04:47:06.068Z,92.00
2019-01-25T04:48:06.535Z,92.04
2019-01-25T04:49:06.997Z,92.04
2019-01-25T04:50:07.465Z,92.04
2019-01-25T04:51:07.934Z,92.04
2019-01-25T04:52:08.408Z,92.04
2019-01-25T04:53:08.873Z,92.04
2019-01-25T04:54:09.341Z,92.04
2019-01-25T04:55:09.811Z,92.04
2019-01-25T04:56:10.279Z,92.02
2019-01-25T04:57:10.748Z,92.04
2019-01-25T04:58:11.223Z,92.02
2019-01-25T04:59:11.687Z,92.02
2019-01-25T05:00:12.154Z,92.04
2019-01-25T05:01:12.627Z,92.01
2019-01-25T05:02:13.092Z,92.04
2019-01-25T05:03:13.563Z,92.04
2019-01-25T05:04:14.031Z,92.04
2019-01-25T05:05:14.499Z,92.04
2019-01-25T05:06:14.970Z,92.04
2019-01-25T05:07:15.438Z,92.04
2019-01-25T05:08:16.234Z,92.04
2019-01-25T05:09:16.411Z,92.03
2019-01-25T05:10:17.192Z,92.04
2019-01-25T05:11:20.026Z,92.00
2019-01-25T05:12:17.781Z,92.04
2019-01-25T05:13:18.252Z,92.04
2019-01-25T05:14:18.722Z,92.04
2019-01-25T05:15:19.191Z,92.04
2019-01-25T05:16:19.657Z,92.04
2019-01-25T05:17:20.126Z,92.04
2019-01-25T05:18:20.595Z,92.02
2019-01-25T05:19:21.065Z,92.00
2019-01-25T05:20:21.547Z,92.02
2019-01-25T05:21:22.003Z,92.04
2019-01-25T05:22:22.470Z,92.03
2019-01-25T05:23:22.944Z,92.05
2019-01-25T05:24:23.417Z,92.05
2019-01-25T05:25:23.879Z,92.01
2019-01-25T05:26:24.347Z,92.03
2019-01-25T05:27:24.817Z,92.01
2019-01-25T05:28:25.285Z,92.04
2019-01-25T05:29:25.756Z,92.04
2019-01-25T05:30:26.275Z,92.04
2019-01-25T05:31:26.694Z,92.03
2019-01-25T05:32:27.160Z,92.03
2019-01-25T05:33:27.633Z,92.03
2019-01-25T05:34:28.098Z,92.03
2019-01-25T05:35:28.566Z,92.01
2019-01-25T05:36:29.038Z,92.01
2019-01-25T05:37:29.507Z,92.03
2019-01-25T05:38:29.973Z,92.03
2019-01-25T05:39:30.442Z,92.01
2019-01-25T05:40:30.911Z,92.01
2019-01-25T05:41:31.381Z,92.03
2019-01-25T05:42:31.849Z,92.01
2019-01-25T05:43:32.319Z,92.01
2019-01-25T05:44:32.786Z,92.01
2019-01-25T05:45:33.257Z,92.01
2019-01-25T05:46:33.724Z,92.01
2019-01-25T05:47:34.193Z,92.02
2019-01-25T05:48:34.663Z,92.01
2019-01-25T05:49:35.133Z,92.02
2019-01-25T05:50:35.607Z,92.02
2019-01-25T05:51:36.069Z,92.03
2019-01-25T05:52:36.536Z,92.02
2019-01-25T05:53:37.004Z,92.02
2019-01-25T05:54:37.475Z,92.02
2019-01-25T05:55:37.944Z,92.02
2019-01-25T05:56:38.410Z,92.03
2019-01-25T05:57:38.879Z,92.02
2019-01-25T05:58:39.552Z,92.02
2019-01-25T05:59:39.818Z,92.04
2019-01-25T06:00:40.286Z,92.02
2019-01-25T06:01:40.756Z,92.02
2019-01-25T06:02:41.223Z,92.02
2019-01-25T06:03:41.692Z,92.02
2019-01-25T06:04:42.162Z,92.04
2019-01-25T06:05:42.630Z,92.02
2019-01-25T06:06:43.104Z,92.02
2019-01-25T06:07:44.104Z,92.06
2019-01-25T06:08:44.351Z,92.04
2019-01-25T06:09:44.507Z,92.02
2019-01-25T06:10:44.974Z,92.04
2019-01-25T06:11:45.747Z,92.04
2019-01-25T06:12:45.913Z,92.02
2019-01-25T06:13:46.379Z,92.02
2019-01-25T06:14:46.849Z,92.03
2019-01-25T06:15:47.317Z,92.02
2019-01-25T06:16:47.785Z,92.06
2019-01-25T06:17:48.255Z,92.06
2019-01-25T06:18:48.722Z,92.03
2019-01-25T06:19:49.193Z,92.06
2019-01-25T06:20:49.862Z,92.03
2019-01-25T06:21:50.131Z,92.05
2019-01-25T06:22:50.598Z,92.04
2019-01-25T06:23:51.067Z,92.02
2019-01-25T06:24:51.536Z,92.05
2019-01-25T06:25:52.006Z,92.06
2019-01-25T06:26:52.525Z,92.05
2019-01-25T06:27:52.943Z,92.06
2019-01-25T06:28:53.409Z,92.03
2019-01-25T06:29:53.879Z,92.03
2019-01-25T06:30:54.351Z,92.04
2019-01-25T06:31:54.819Z,92.03
2019-01-25T06:32:55.288Z,92.06
2019-01-25T06:33:55.757Z,92.05
2019-01-25T06:34:56.224Z,92.06
2019-01-25T06:35:56.699Z,92.06
2019-01-25T06:36:57.159Z,92.05
2019-01-25T06:37:57.633Z,92.06
2019-01-25T06:38:58.097Z,92.05
2019-01-25T06:39:58.774Z,92.07
2019-01-25T06:40:59.035Z,92.07
2019-01-25T06:41:59.504Z,92.06
2019-01-25T06:42:59.972Z,92.07
2019-01-25T06:44:00.443Z,92.07
2019-01-25T06:45:00.907Z,92.07
2019-01-25T06:46:01.378Z,92.07
2019-01-25T06:47:01.846Z,92.07
2019-01-25T06:48:02.315Z,92.07
2019-01-25T06:49:02.785Z,92.07
2019-01-25T06:50:03.252Z,92.07
2019-01-25T06:51:03.721Z,92.08
2019-01-25T06:52:04.189Z,92.07
2019-01-25T06:53:04.659Z,92.08
2019-01-25T06:54:05.127Z,92.08
2019-01-25T06:55:05.597Z,92.07
2019-01-25T06:56:06.064Z,92.08
2019-01-25T06:57:06.531Z,92.08
2019-01-25T06:58:06.999Z,92.08
2019-01-25T06:59:07.469Z,92.08
2019-01-25T07:00:07.938Z,92.08
2019-01-25T07:01:08.404Z,92.08
2019-01-25T07:02:08.874Z,92.08
2019-01-25T07:04:10.152Z,92.08
2019-01-25T07:05:10.280Z,92.08
2019-01-25T07:06:10.747Z,92.08
2019-01-25T07:07:11.219Z,92.08
2019-01-25T07:08:11.686Z,92.08
2019-01-25T07:09:12.154Z,92.08
2019-01-25T07:10:12.623Z,92.09
2019-01-25T07:11:13.097Z,92.09
2019-01-25T07:12:13.612Z,92.08
2019-01-25T07:13:14.034Z,92.09
2019-01-25T07:14:14.498Z,92.09
2019-01-25T07:15:14.967Z,92.09
2019-01-25T07:16:15.435Z,92.09
2019-01-25T07:17:15.904Z,92.09
2019-01-25T07:18:16.373Z,92.09
2019-01-25T07:19:16.839Z,92.09
2019-01-25T07:20:17.319Z,92.09
2019-01-25T07:21:17.778Z,92.10
2019-01-25T07:22:18.259Z,92.09
2019-01-25T07:23:18.714Z,92.10
2019-01-25T07:24:19.183Z,92.10
2019-01-25T07:25:19.650Z,92.10
2019-01-25T07:26:20.119Z,92.10
2019-01-25T07:27:20.639Z,92.10
2019-01-25T07:28:21.060Z,92.10
2019-01-25T07:29:21.532Z,92.10
2019-01-25T07:30:21.997Z,92.10
2019-01-25T07:31:22.474Z,92.10
2019-01-25T07:32:22.949Z,92.10
2019-01-25T07:33:23.413Z,92.11
2019-01-25T07:34:23.868Z,92.11
2019-01-25T07:35:24.336Z,92.11
2019-01-25T07:36:24.839Z,92.11
2019-01-25T07:37:25.279Z,92.11
2019-01-25T07:38:25.747Z,92.11
2019-01-25T07:39:26.250Z,92.12
2019-01-25T07:40:26.733Z,92.12
2019-01-25T07:41:27.153Z,92.12
2019-01-25T07:42:27.664Z,92.12
2019-01-25T07:43:28.084Z,92.12
2019-01-25T07:44:28.567Z,92.12
2019-01-25T07:45:29.018Z,92.12
2019-01-25T07:46:29.493Z,92.13
2019-01-25T07:47:29.956Z,92.13
2019-01-25T07:48:30.427Z,92.13
2019-01-25T07:49:30.901Z,92.15
2019-01-25T07:50:31.367Z,92.15
2019-01-25T07:51:31.845Z,92.13
2019-01-25T07:52:32.306Z,92.13
2019-01-25T07:53:32.773Z,92.14
2019-01-25T07:54:33.235Z,92.14
2019-01-25T07:55:33.720Z,92.13
2019-01-25T07:56:34.173Z,92.13
2019-01-25T07:57:34.705Z,92.14
2019-01-25T07:58:35.110Z,92.14
2019-01-25T07:59:35.577Z,92.14
2019-01-25T08:00:36.046Z,92.14
2019-01-25T08:01:36.514Z,92.14
2019-01-25T08:02:36.982Z,92.16
2019-01-25T08:03:37.450Z,92.14
2019-01-25T08:04:37.930Z,92.15
2019-01-25T08:05:38.393Z,92.15
2019-01-25T08:06:38.855Z,92.15
2019-01-25T08:07:39.401Z,92.15
2019-01-25T08:08:39.794Z,92.17
2019-01-25T08:09:40.262Z,92.17
2019-01-25T08:10:40.729Z,92.16
2019-01-25T08:11:41.227Z,92.16
2019-01-25T08:12:41.716Z,92.16
2019-01-25T08:13:42.136Z,92.18
2019-01-25T08:14:42.604Z,92.18
2019-01-25T08:15:43.110Z,92.16
2019-01-25T08:16:43.540Z,92.17
2019-01-25T08:17:44.009Z,92.16
2019-01-25T08:18:44.476Z,92.16
2019-01-25T08:19:44.982Z,92.20
2019-01-25T08:20:45.433Z,92.19
2019-01-25T08:21:45.891Z,92.19
2019-01-25T08:22:46.353Z,92.19
2019-01-25T08:23:46.818Z,92.19
2019-01-25T08:24:47.294Z,92.21
2019-01-25T08:25:47.755Z,92.17
2019-01-25T08:26:48.264Z,92.19
2019-01-25T08:27:48.965Z,92.21
2019-01-25T08:28:49.363Z,92.19
2019-01-25T08:29:49.629Z,92.18
2019-01-25T08:30:50.130Z,92.18
2019-01-25T08:31:50.607Z,92.17
2019-01-25T08:32:51.089Z,92.22
2019-01-25T08:33:51.566Z,92.20
2019-01-25T08:34:51.973Z,92.20
2019-01-25T08:35:52.437Z,92.22
2019-01-25T08:36:52.953Z,92.21
2019-01-25T08:37:53.384Z,92.22
2019-01-25T08:38:53.857Z,92.22
2019-01-25T08:39:54.331Z,92.19
2019-01-25T08:40:55.114Z,92.22
2019-01-25T08:41:55.285Z,92.19
2019-01-25T08:42:55.791Z,92.22
2019-01-25T08:43:56.184Z,92.21
2019-01-25T08:44:56.654Z,92.21
2019-01-25T08:45:57.176Z,92.21
2019-01-25T08:46:57.595Z,92.23
2019-01-25T08:47:58.062Z,92.23
2019-01-25T08:48:58.529Z,92.23
2019-01-25T08:49:58.995Z,92.22
2019-01-25T08:50:59.494Z,92.24
2019-01-25T08:51:59.931Z,92.24
2019-01-25T08:53:00.461Z,92.22
2019-01-25T08:54:00.873Z,92.24
2019-01-25T08:55:01.551Z,92.24
2019-01-25T08:56:01.806Z,92.24
2019-01-25T08:57:02.276Z,92.23
2019-01-25T08:58:02.822Z,92.24
2019-01-25T08:59:03.235Z,92.25
2019-01-25T09:00:03.681Z,92.25
2019-01-25T09:01:04.148Z,92.23
2019-01-25T09:02:04.615Z,92.26
2019-01-25T09:03:05.135Z,92.26
2019-01-25T09:04:05.555Z,92.25
2019-01-25T09:05:06.021Z,92.26
2019-01-25T09:06:06.489Z,92.26
2019-01-25T09:07:06.959Z,92.26
2019-01-25T09:08:07.430Z,92.26
2019-01-25T09:09:07.958Z,92.26
2019-01-25T09:10:08.365Z,92.26
2019-01-25T09:11:08.836Z,92.24
2019-01-25T09:12:09.301Z,92.26
2019-01-25T09:13:09.771Z,92.27
2019-01-25T09:14:10.239Z,92.26
2019-01-25T09:15:10.912Z,92.27
2019-01-25T09:16:11.177Z,92.25
2019-01-25T09:17:11.644Z,92.27
2019-01-25T09:18:12.111Z,92.25
2019-01-25T09:19:12.581Z,92.27
2019-01-25T09:20:14.576Z,92.27
2019-01-25T09:21:13.926Z,92.27
2019-01-25T09:23:14.455Z,92.27
2019-01-25T09:24:14.924Z,92.27
2019-01-25T09:25:15.396Z,92.27
2019-01-25T09:26:15.910Z,92.27
2019-01-25T09:27:16.329Z,92.28
2019-01-25T09:29:17.275Z,92.28
2019-01-25T09:30:17.732Z,92.27
2019-01-25T09:32:18.670Z,92.28
2019-01-25T09:33:19.138Z,92.28
2019-01-25T09:34:19.607Z,92.28
2019-01-25T09:35:20.077Z,92.28
2019-01-25T09:36:20.543Z,92.28
2019-01-25T09:37:21.012Z,92.28
2019-01-25T09:38:21.479Z,92.28
2019-01-25T09:39:22.152Z,92.28
2019-01-25T09:40:22.419Z,92.27
2019-01-25T09:41:22.888Z,92.28
2019-01-25T09:42:30.843Z,92.28
2019-01-25T09:43:23.823Z,92.28
2019-01-25T09:44:24.297Z,92.29
2019-01-25T09:45:24.964Z,92.29
2019-01-25T09:46:25.437Z,92.29
2019-01-25T09:47:25.701Z,92.29
2019-01-25T09:48:26.372Z,92.29
2019-01-25T09:49:26.639Z,92.29
2019-01-25T09:50:27.307Z,92.29
2019-01-25T09:52:28.042Z,92.29
2019-01-25T09:53:28.509Z,92.29
2019-01-25T09:54:28.979Z,92.30
2019-01-25T09:55:29.446Z,92.30
2019-01-25T09:56:29.917Z,92.30
2019-01-25T09:57:30.385Z,92.29
2019-01-25T09:58:30.852Z,92.28
2019-01-25T09:59:31.322Z,92.29
2019-01-25T10:00:31.790Z,92.30
2019-01-25T10:01:32.260Z,92.30
2019-01-25T10:02:32.727Z,92.30
2019-01-25T10:03:33.248Z,92.30
2019-01-25T10:04:33.663Z,92.30
2019-01-25T10:05:34.140Z,92.30
2019-01-25T10:06:34.601Z,92.30
2019-01-25T10:07:35.068Z,92.30
2019-01-25T10:08:35.540Z,92.30
2019-01-25T10:09:36.007Z,92.30
2019-01-25T10:10:36.475Z,92.30
2019-01-25T10:11:36.944Z,92.30
2019-01-25T10:12:43.211Z,92.30
2019-01-25T10:13:37.881Z,92.30
2019-01-25T10:14:38.349Z,92.30
2019-01-25T10:15:39.023Z,92.30
2019-01-25T10:16:39.286Z,92.30
2019-01-25T10:17:39.754Z,92.30
2019-01-25T10:18:40.220Z,92.30
2019-01-25T10:19:40.893Z,92.30
2019-01-25T10:20:41.159Z,92.30
2019-01-25T10:21:41.632Z,92.30
2019-01-25T10:22:42.097Z,92.28
2019-01-25T10:23:42.616Z,92.30
2019-01-25T10:24:43.034Z,92.30
2019-01-25T10:25:43.501Z,92.30
2019-01-25T10:26:43.973Z,92.30
2019-01-25T10:27:44.643Z,92.30
2019-01-25T10:28:44.909Z,92.30
2019-01-25T10:29:45.376Z,92.30
2019-01-25T10:30:45.843Z,92.30
2019-01-25T10:31:46.313Z,92.30
2019-01-25T10:32:46.781Z,92.30
2019-01-25T10:33:47.352Z,92.30
2019-01-25T10:34:47.718Z,92.30
2019-01-25T10:35:48.185Z,92.30
2019-01-25T10:36:48.659Z,92.30
2019-01-25T10:37:49.122Z,92.30
2019-01-25T10:38:49.846Z,92.30
2019-01-25T10:39:50.059Z,92.30
2019-01-25T10:40:50.534Z,92.30
2019-01-25T10:41:51.001Z,92.30
2019-01-25T10:42:53.234Z,92.30
2019-01-25T10:43:51.983Z,92.30
2019-01-25T10:44:52.402Z,92.30
2019-01-25T10:45:52.870Z,92.30
2019-01-25T10:46:53.340Z,92.30
2019-01-25T10:47:53.811Z,92.31
2019-01-25T10:48:54.276Z,92.30
2019-01-25T10:49:54.745Z,92.30
2019-01-25T10:50:55.211Z,92.30
2019-01-25T10:51:55.681Z,92.31
2019-01-25T10:52:56.149Z,92.31
2019-01-25T10:53:56.620Z,92.30
2019-01-25T10:55:57.555Z,92.30
2019-01-25T10:56:58.029Z,92.30
2019-01-25T10:57:58.492Z,92.31
2019-01-25T10:58:58.963Z,92.31
2019-01-25T10:59:59.427Z,92.30
2019-01-25T11:00:59.898Z,92.31
2019-01-25T11:02:00.366Z,92.30
2019-01-25T11:03:00.837Z,92.31
2019-01-25T11:04:01.301Z,92.31
2019-01-25T11:05:01.773Z,92.31
2019-01-25T11:06:02.239Z,92.31
2019-01-25T11:07:03.394Z,92.31
2019-01-25T11:08:03.176Z,92.31
2019-01-25T11:09:03.643Z,92.31
2019-01-25T11:10:04.116Z,92.31
2019-01-25T11:11:04.792Z,92.31
2019-01-25T11:12:05.050Z,92.31
2019-01-25T11:13:05.521Z,92.31
2019-01-25T11:14:06.191Z,92.31
2019-01-25T11:15:06.456Z,92.31
2019-01-25T11:17:07.393Z,92.31
2019-01-25T11:18:07.863Z,92.31
2019-01-25T11:19:08.381Z,92.32
2019-01-25T11:20:08.800Z,92.32
2019-01-25T11:21:09.269Z,92.32
2019-01-25T11:22:09.737Z,92.31
2019-01-25T11:23:10.408Z,92.32
2019-01-25T11:24:10.876Z,92.32
2019-01-25T11:25:11.142Z,92.32
2019-01-25T11:26:11.812Z,92.32
2019-01-25T11:27:12.281Z,92.32
2019-01-25T11:28:12.547Z,92.31
2019-01-25T11:29:13.017Z,92.34
2019-01-25T11:30:13.484Z,92.32
2019-01-25T11:31:13.952Z,92.32
2019-01-25T11:32:14.426Z,92.32
2019-01-25T11:33:14.891Z,92.32
2019-01-25T11:34:15.363Z,92.32
2019-01-25T11:35:15.827Z,92.32
2019-01-25T11:36:16.705Z,92.32
2019-01-25T11:37:16.765Z,92.32
2019-01-25T11:38:17.232Z,92.32
2019-01-25T11:39:17.753Z,92.32
2019-01-25T11:40:18.373Z,92.34
2019-01-25T11:41:18.641Z,92.32
2019-01-25T11:42:19.110Z,92.34
2019-01-25T11:43:19.577Z,92.32
2019-01-25T11:44:20.049Z,92.34
2019-01-25T11:45:20.522Z,92.32
2019-01-25T11:46:20.983Z,92.32
2019-01-25T11:47:21.454Z,92.32
2019-01-25T11:48:22.123Z,92.32
2019-01-25T11:49:22.391Z,92.35
2019-01-25T11:50:22.857Z,92.33
2019-01-25T11:51:23.328Z,92.32
2019-01-25T11:52:25.218Z,92.32
2019-01-25T11:53:24.467Z,92.35
2019-01-25T11:54:24.782Z,92.35
2019-01-25T11:55:25.404Z,92.32
2019-01-25T11:56:25.670Z,92.33
2019-01-25T11:57:26.139Z,92.33
2019-01-25T11:58:26.609Z,92.33
2019-01-25T11:59:27.128Z,92.32
2019-01-25T12:00:27.750Z,92.34
2019-01-25T12:01:28.014Z,92.35
2019-01-25T12:02:28.686Z,92.33
2019-01-25T12:03:29.356Z,92.33
2019-01-25T12:04:29.825Z,92.33
2019-01-25T12:05:29.893Z,92.35
2019-01-25T12:07:30.827Z,92.33
2019-01-25T12:08:31.296Z,92.35
2019-01-25T12:09:31.765Z,92.33
2019-01-25T12:10:32.232Z,92.33
2019-01-25T12:11:32.701Z,92.33
2019-01-25T12:12:33.170Z,92.33
2019-01-25T12:13:33.639Z,92.35
2019-01-25T12:14:34.115Z,92.33
2019-01-25T12:15:34.780Z,92.35
2019-01-25T12:16:35.048Z,92.35
2019-01-25T12:17:35.516Z,92.33
2019-01-25T12:18:35.985Z,92.35
2019-01-25T12:19:36.455Z,92.34
2019-01-25T12:20:37.124Z,92.35
2019-01-25T12:21:37.591Z,92.35
2019-01-25T12:22:37.922Z,92.35
2019-01-25T12:23:38.328Z,92.37
2019-01-25T12:24:38.797Z,92.36
2019-01-25T12:25:39.264Z,92.37
2019-01-25T12:26:39.735Z,92.35
2019-01-25T12:27:40.202Z,92.36
2019-01-25T12:28:40.874Z,92.37
2019-01-25T12:29:41.140Z,92.37
2019-01-25T12:30:41.610Z,92.34
2019-01-25T12:31:42.077Z,92.37
2019-01-25T12:32:42.555Z,92.36
2019-01-25T12:33:43.015Z,92.35
2019-01-25T12:34:43.536Z,92.36
2019-01-25T12:35:43.952Z,92.37
2019-01-25T12:36:44.423Z,92.35
2019-01-25T12:37:44.892Z,92.36
2019-01-25T12:38:45.563Z,92.34
2019-01-25T12:39:45.828Z,92.38
2019-01-25T12:40:46.296Z,92.34
2019-01-25T12:41:46.768Z,92.35
2019-01-25T12:42:47.235Z,92.38
2019-01-25T12:43:47.704Z,92.36
2019-01-25T12:44:48.173Z,92.34
2019-01-25T12:45:50.171Z,92.38
2019-01-25T12:46:49.314Z,92.36
2019-01-25T12:47:49.582Z,92.34
2019-01-25T12:48:50.250Z,92.36
2019-01-25T12:49:50.569Z,92.36
2019-01-25T12:50:50.986Z,92.37
2019-01-25T12:51:51.454Z,92.38
2019-01-25T12:52:52.124Z,92.37
2019-01-25T12:53:52.596Z,92.38
2019-01-25T12:54:53.065Z,92.38
2019-01-25T12:55:53.330Z,92.37
2019-01-25T12:56:53.798Z,92.38
2019-01-25T12:58:54.741Z,92.36
2019-01-25T12:59:55.408Z,92.37
2019-01-25T13:00:55.674Z,92.38
2019-01-25T13:02:56.614Z,92.38
2019-01-25T13:03:57.084Z,92.37
2019-01-25T13:04:57.551Z,92.38
2019-01-25T13:06:58.489Z,92.37
2019-01-25T13:07:58.958Z,92.37
2019-01-25T13:08:59.427Z,92.38
2019-01-25T13:09:59.946Z,92.38